sensor_id;sensor_type;location;lat;lon;timestamp;pressure;altitude;pressure_sealevel;temperature;humidity
6194;BME280;3130;41.564;23.280;2023-04-26T00:01:19;97930.25;;;10.07;100.00
6194;BME280;3130;41.564;23.280;2023-04-26T00:03:47;97916.97;;;10.02;100.00
6194;BME280;3130;41.564;23.280;2023-04-26T00:06:15;97931.06;;;10.08;100.00
6194;BME280;3130;41.564;23.280;2023-04-26T00:08:43;97928.00;;;10.03;100.00
6194;BME280;3130;41.564;23.280;2023-04-26T00:11:10;97921.63;;;9.85;100.00
6194;BME280;3130;41.564;23.280;2023-04-26T00:13:37;97875.44;;;9.52;100.00
6194;BME280;3130;41.564;23.280;2023-04-26T00:16:04;97939.25;;;9.90;100.00
6194;BME280;3130;41.564;23.280;2023-04-26T00:18:31;97938.19;;;9.92;100.00
6194;BME280;3130;41.564;23.280;2023-04-26T00:20:58;97935.56;;;9.70;100.00
6194;BME280;3130;41.564;23.280;2023-04-26T00:26:12;97930.97;;;9.63;100.00
6194;BME280;3130;41.564;23.280;2023-04-26T00:28:39;97934.38;;;9.63;100.00
6194;BME280;3130;41.564;23.280;2023-04-26T00:31:06;97940.63;;;9.59;100.00
6194;BME280;3130;41.564;23.280;2023-04-26T00:33:33;97938.88;;;9.60;100.00
6194;BME280;3130;41.564;23.280;2023-04-26T00:36:00;97927.72;;;9.61;100.00
6194;BME280;3130;41.564;23.280;2023-04-26T00:38:28;97925.25;;;9.48;100.00
6194;BME280;3130;41.564;23.280;2023-04-26T00:40:56;97923.09;;;9.42;100.00
6194;BME280;3130;41.564;23.280;2023-04-26T00:43:23;97861.22;;;9.14;100.00
6194;BME280;3130;41.564;23.280;2023-04-26T00:45:50;97933.66;;;9.61;100.00
6194;BME280;3130;41.564;23.280;2023-04-26T00:48:18;97931.59;;;9.66;100.00
6194;BME280;3130;41.564;23.280;2023-04-26T00:50:46;97917.09;;;9.54;100.00
6194;BME280;3130;41.564;23.280;2023-04-26T00:53:14;97936.38;;;9.71;100.00
6194;BME280;3130;41.564;23.280;2023-04-26T00:55:43;97902.41;;;9.69;100.00
6194;BME280;3130;41.564;23.280;2023-04-26T00:58:11;97908.94;;;9.73;100.00
6194;BME280;3130;41.564;23.280;2023-04-26T01:00:38;97897.09;;;9.83;100.00
6194;BME280;3130;41.564;23.280;2023-04-26T01:03:05;97904.53;;;9.75;100.00
6194;BME280;3130;41.564;23.280;2023-04-26T01:05:32;97910.44;;;9.75;100.00
6194;BME280;3130;41.564;23.280;2023-04-26T01:07:59;97911.16;;;9.77;100.00
6194;BME280;3130;41.564;23.280;2023-04-26T01:10:27;97913.81;;;9.76;100.00
6194;BME280;3130;41.564;23.280;2023-04-26T01:12:56;97915.84;;;9.83;100.00
6194;BME280;3130;41.564;23.280;2023-04-26T01:15:23;97923.84;;;9.79;100.00
6194;BME280;3130;41.564;23.280;2023-04-26T01:17:52;97925.38;;;9.81;100.00
6194;BME280;3130;41.564;23.280;2023-04-26T01:20:19;97921.41;;;9.77;100.00
6194;BME280;3130;41.564;23.280;2023-04-26T01:22:48;97927.31;;;9.78;100.00
6194;BME280;3130;41.564;23.280;2023-04-26T01:25:15;97907.75;;;9.42;100.00
6194;BME280;3130;41.564;23.280;2023-04-26T01:27:42;97907.03;;;9.40;100.00
6194;BME280;3130;41.564;23.280;2023-04-26T01:30:09;97879.84;;;9.16;100.00
6194;BME280;3130;41.564;23.280;2023-04-26T01:32:37;97895.59;;;9.33;100.00
6194;BME280;3130;41.564;23.280;2023-04-26T01:35:04;97872.56;;;9.33;100.00
6194;BME280;3130;41.564;23.280;2023-04-26T01:37:31;97879.78;;;9.52;100.00
6194;BME280;3130;41.564;23.280;2023-04-26T01:40:00;97901.00;;;9.76;100.00
6194;BME280;3130;41.564;23.280;2023-04-26T01:42:27;97887.78;;;9.82;100.00
6194;BME280;3130;41.564;23.280;2023-04-26T01:44:54;97838.78;;;9.41;100.00
6194;BME280;3130;41.564;23.280;2023-04-26T01:47:21;97881.59;;;9.73;100.00
6194;BME280;3130;41.564;23.280;2023-04-26T01:49:49;97892.53;;;9.75;100.00
6194;BME280;3130;41.564;23.280;2023-04-26T01:52:16;97879.59;;;9.66;100.00
6194;BME280;3130;41.564;23.280;2023-04-26T01:54:43;97900.44;;;9.72;100.00
6194;BME280;3130;41.564;23.280;2023-04-26T01:57:11;97902.41;;;9.69;100.00
6194;BME280;3130;41.564;23.280;2023-04-26T01:59:38;97902.13;;;9.61;100.00
6194;BME280;3130;41.564;23.280;2023-04-26T02:02:05;97890.56;;;9.44;100.00
6194;BME280;3130;41.564;23.280;2023-04-26T02:04:32;97894.53;;;9.48;100.00
6194;BME280;3130;41.564;23.280;2023-04-26T02:06:59;97811.09;;;8.88;100.00
6194;BME280;3130;41.564;23.280;2023-04-26T02:09:26;97899.69;;;9.36;100.00
6194;BME280;3130;41.564;23.280;2023-04-26T02:11:53;97893.16;;;9.32;100.00
6194;BME280;3130;41.564;23.280;2023-04-26T02:14:21;97907.63;;;9.44;100.00
6194;BME280;3130;41.564;23.280;2023-04-26T02:16:48;97899.09;;;9.56;100.00
6194;BME280;3130;41.564;23.280;2023-04-26T02:19:16;97901.09;;;9.63;100.00
6194;BME280;3130;41.564;23.280;2023-04-26T02:21:50;97860.31;;;9.49;100.00
6194;BME280;3130;41.564;23.280;2023-04-26T02:24:18;97894.28;;;9.75;100.00
6194;BME280;3130;41.564;23.280;2023-04-26T02:26:46;97892.81;;;9.83;100.00
6194;BME280;3130;41.564;23.280;2023-04-26T02:29:13;97886.72;;;9.84;100.00
6194;BME280;3130;41.564;23.280;2023-04-26T02:31:41;97883.38;;;9.95;100.00
6194;BME280;3130;41.564;23.280;2023-04-26T02:34:08;97881.59;;;9.84;100.00
6194;BME280;3130;41.564;23.280;2023-04-26T02:36:35;97877.53;;;9.82;100.00
6194;BME280;3130;41.564;23.280;2023-04-26T02:39:02;97877.03;;;9.77;100.00
6194;BME280;3130;41.564;23.280;2023-04-26T02:41:30;97874.97;;;9.82;100.00
6194;BME280;3130;41.564;23.280;2023-04-26T02:43:58;97847.94;;;9.67;100.00
6194;BME280;3130;41.564;23.280;2023-04-26T02:46:25;97856.25;;;9.81;100.00
6194;BME280;3130;41.564;23.280;2023-04-26T02:48:53;97864.72;;;9.82;100.00
6194;BME280;3130;41.564;23.280;2023-04-26T02:51:20;97867.50;;;9.68;100.00
6194;BME280;3130;41.564;23.280;2023-04-26T02:53:47;97872.94;;;9.63;100.00
6194;BME280;3130;41.564;23.280;2023-04-26T02:56:14;97870.50;;;9.62;100.00
6194;BME280;3130;41.564;23.280;2023-04-26T02:58:41;97865.41;;;9.73;100.00
6194;BME280;3130;41.564;23.280;2023-04-26T03:01:08;97867.13;;;9.61;100.00
6194;BME280;3130;41.564;23.280;2023-04-26T03:03:36;97861.84;;;9.52;100.00
6194;BME280;3130;41.564;23.280;2023-04-26T03:06:05;97817.31;;;9.20;100.00
6194;BME280;3130;41.564;23.280;2023-04-26T03:08:33;97829.78;;;9.24;100.00
6194;BME280;3130;41.564;23.280;2023-04-26T03:11:01;97861.63;;;9.55;100.00
6194;BME280;3130;41.564;23.280;2023-04-26T03:13:28;97855.69;;;9.54;100.00
6194;BME280;3130;41.564;23.280;2023-04-26T03:15:55;97863.09;;;9.70;100.00
6194;BME280;3130;41.564;23.280;2023-04-26T03:18:22;97856.19;;;9.70;100.00
6194;BME280;3130;41.564;23.280;2023-04-26T03:20:49;97857.84;;;9.71;100.00
6194;BME280;3130;41.564;23.280;2023-04-26T03:23:17;97820.97;;;9.28;100.00
6194;BME280;3130;41.564;23.280;2023-04-26T03:25:46;97845.16;;;9.35;100.00
6194;BME280;3130;41.564;23.280;2023-04-26T03:28:13;97857.63;;;9.40;100.00
6194;BME280;3130;41.564;23.280;2023-04-26T03:30:40;97832.31;;;9.24;100.00
6194;BME280;3130;41.564;23.280;2023-04-26T03:33:07;97823.25;;;9.20;100.00
6194;BME280;3130;41.564;23.280;2023-04-26T03:35:34;97856.81;;;9.39;100.00
6194;BME280;3130;41.564;23.280;2023-04-26T03:38:01;97853.69;;;9.47;100.00
6194;BME280;3130;41.564;23.280;2023-04-26T03:40:30;97847.53;;;9.49;100.00
6194;BME280;3130;41.564;23.280;2023-04-26T03:42:57;97849.72;;;9.43;100.00
6194;BME280;3130;41.564;23.280;2023-04-26T03:45:24;97845.44;;;9.43;100.00
6194;BME280;3130;41.564;23.280;2023-04-26T03:47:51;97831.56;;;9.35;100.00
6194;BME280;3130;41.564;23.280;2023-04-26T03:50:18;97853.09;;;9.43;100.00
6194;BME280;3130;41.564;23.280;2023-04-26T03:52:45;97772.91;;;8.98;100.00
6194;BME280;3130;41.564;23.280;2023-04-26T03:55:12;97851.84;;;9.49;100.00
6194;BME280;3130;41.564;23.280;2023-04-26T03:57:41;97850.34;;;9.57;100.00
6194;BME280;3130;41.564;23.280;2023-04-26T04:00:09;97849.09;;;9.63;100.00
6194;BME280;3130;41.564;23.280;2023-04-26T04:02:38;97857.41;;;9.77;100.00
6194;BME280;3130;41.564;23.280;2023-04-26T04:05:05;97851.13;;;9.81;100.00
6194;BME280;3130;41.564;23.280;2023-04-26T04:07:32;97857.19;;;9.91;100.00
6194;BME280;3130;41.564;23.280;2023-04-26T04:09:59;97841.81;;;9.80;100.00
6194;BME280;3130;41.564;23.280;2023-04-26T04:12:26;97857.97;;;9.81;100.00
6194;BME280;3130;41.564;23.280;2023-04-26T04:14:55;97855.91;;;9.75;100.00
6194;BME280;3130;41.564;23.280;2023-04-26T04:17:22;97736.69;;;9.03;100.00
6194;BME280;3130;41.564;23.280;2023-04-26T04:19:49;97861.72;;;9.88;100.00
6194;BME280;3130;41.564;23.280;2023-04-26T04:22:16;97854.41;;;9.94;100.00
6194;BME280;3130;41.564;23.280;2023-04-26T04:24:43;97862.13;;;10.05;100.00
6194;BME280;3130;41.564;23.280;2023-04-26T04:27:12;97847.47;;;10.07;100.00
6194;BME280;3130;41.564;23.280;2023-04-26T04:29:39;97860.53;;;10.26;100.00
6194;BME280;3130;41.564;23.280;2023-04-26T04:32:08;97838.06;;;10.18;100.00
6194;BME280;3130;41.564;23.280;2023-04-26T04:34:36;97869.75;;;10.39;100.00
6194;BME280;3130;41.564;23.280;2023-04-26T04:37:03;97862.53;;;10.22;100.00
6194;BME280;3130;41.564;23.280;2023-04-26T04:39:30;97858.06;;;10.13;100.00
6194;BME280;3130;41.564;23.280;2023-04-26T04:41:58;97852.06;;;9.91;100.00
6194;BME280;3130;41.564;23.280;2023-04-26T04:44:25;97837.00;;;9.65;100.00
6194;BME280;3130;41.564;23.280;2023-04-26T04:46:52;97843.66;;;9.78;100.00
6194;BME280;3130;41.564;23.280;2023-04-26T04:49:20;97844.63;;;9.88;100.00
6194;BME280;3130;41.564;23.280;2023-04-26T04:51:49;97848.81;;;9.89;100.00
6194;BME280;3130;41.564;23.280;2023-04-26T04:54:17;97850.50;;;10.01;100.00
6194;BME280;3130;41.564;23.280;2023-04-26T04:56:44;97854.94;;;10.10;100.00
6194;BME280;3130;41.564;23.280;2023-04-26T04:59:11;97849.00;;;10.20;100.00
6194;BME280;3130;41.564;23.280;2023-04-26T05:01:38;97851.56;;;10.31;100.00
6194;BME280;3130;41.564;23.280;2023-04-26T05:04:05;97816.19;;;10.25;100.00
6194;BME280;3130;41.564;23.280;2023-04-26T05:06:34;97845.50;;;10.65;100.00
6194;BME280;3130;41.564;23.280;2023-04-26T05:09:01;97836.63;;;10.69;100.00
6194;BME280;3130;41.564;23.280;2023-04-26T05:11:30;97844.06;;;10.83;100.00
6194;BME280;3130;41.564;23.280;2023-04-26T05:13:57;97843.56;;;11.00;100.00
6194;BME280;3130;41.564;23.280;2023-04-26T05:16:24;97844.13;;;11.14;100.00
6194;BME280;3130;41.564;23.280;2023-04-26T05:18:51;97839.44;;;11.19;100.00
6194;BME280;3130;41.564;23.280;2023-04-26T05:21:18;97848.25;;;11.37;100.00
6194;BME280;3130;41.564;23.280;2023-04-26T05:23:47;97846.19;;;11.52;100.00
6194;BME280;3130;41.564;23.280;2023-04-26T05:26:15;97749.19;;;10.94;100.00
6194;BME280;3130;41.564;23.280;2023-04-26T05:28:42;97850.81;;;11.69;100.00
6194;BME280;3130;41.564;23.280;2023-04-26T05:31:10;97851.69;;;11.79;100.00
6194;BME280;3130;41.564;23.280;2023-04-26T05:33:37;97848.50;;;11.86;100.00
6194;BME280;3130;41.564;23.280;2023-04-26T05:36:05;97855.72;;;11.92;100.00
6194;BME280;3130;41.564;23.280;2023-04-26T05:38:34;97861.41;;;11.96;100.00
6194;BME280;3130;41.564;23.280;2023-04-26T05:41:04;97833.59;;;11.80;100.00
6194;BME280;3130;41.564;23.280;2023-04-26T05:43:31;97858.16;;;11.94;100.00
6194;BME280;3130;41.564;23.280;2023-04-26T05:45:58;97874.94;;;11.98;100.00
6194;BME280;3130;41.564;23.280;2023-04-26T05:48:25;97878.22;;;12.00;100.00
6194;BME280;3130;41.564;23.280;2023-04-26T05:50:52;97891.16;;;11.98;100.00
6194;BME280;3130;41.564;23.280;2023-04-26T05:53:20;97889.81;;;11.94;100.00
6194;BME280;3130;41.564;23.280;2023-04-26T05:55:47;97903.06;;;11.99;100.00
6194;BME280;3130;41.564;23.280;2023-04-26T05:58:15;97882.03;;;11.85;100.00
6194;BME280;3130;41.564;23.280;2023-04-26T06:00:42;97909.38;;;11.95;100.00
6194;BME280;3130;41.564;23.280;2023-04-26T06:03:09;97918.56;;;11.57;100.00
6194;BME280;3130;41.564;23.280;2023-04-26T06:05:36;97922.53;;;11.50;100.00
6194;BME280;3130;41.564;23.280;2023-04-26T06:08:04;97935.13;;;11.42;100.00
6194;BME280;3130;41.564;23.280;2023-04-26T06:10:33;97943.34;;;11.25;100.00
6194;BME280;3130;41.564;23.280;2023-04-26T06:13:00;97945.13;;;11.02;100.00
6194;BME280;3130;41.564;23.280;2023-04-26T06:15:29;97949.78;;;10.98;100.00
6194;BME280;3130;41.564;23.280;2023-04-26T06:17:56;97956.31;;;10.91;100.00
6194;BME280;3130;41.564;23.280;2023-04-26T06:20:23;97946.78;;;10.82;100.00
6194;BME280;3130;41.564;23.280;2023-04-26T06:22:50;97954.34;;;11.05;100.00
6194;BME280;3130;41.564;23.280;2023-04-26T06:25:17;97938.00;;;11.06;100.00
6194;BME280;3130;41.564;23.280;2023-04-26T06:27:44;97964.25;;;10.88;100.00
6194;BME280;3130;41.564;23.280;2023-04-26T06:30:12;97961.78;;;10.64;100.00
6194;BME280;3130;41.564;23.280;2023-04-26T06:32:41;97921.69;;;10.52;100.00
6194;BME280;3130;41.564;23.280;2023-04-26T06:35:08;97960.41;;;10.71;100.00
6194;BME280;3130;41.564;23.280;2023-04-26T06:37:36;97961.91;;;10.63;100.00
6194;BME280;3130;41.564;23.280;2023-04-26T06:40:04;97979.47;;;10.45;100.00
6194;BME280;3130;41.564;23.280;2023-04-26T06:42:31;97937.28;;;10.27;100.00
6194;BME280;3130;41.564;23.280;2023-04-26T06:44:58;97870.44;;;9.85;100.00
6194;BME280;3130;41.564;23.280;2023-04-26T06:47:25;97978.66;;;10.56;100.00
6194;BME280;3130;41.564;23.280;2023-04-26T06:49:53;97974.03;;;10.72;100.00
6194;BME280;3130;41.564;23.280;2023-04-26T06:52:21;97967.97;;;10.62;100.00
6194;BME280;3130;41.564;23.280;2023-04-26T06:54:48;97987.22;;;10.89;100.00
6194;BME280;3130;41.564;23.280;2023-04-26T06:57:15;97985.69;;;11.08;100.00
6194;BME280;3130;41.564;23.280;2023-04-26T06:59:42;97986.50;;;11.20;100.00
6194;BME280;3130;41.564;23.280;2023-04-26T07:02:09;97996.97;;;11.39;100.00
6194;BME280;3130;41.564;23.280;2023-04-26T07:04:36;97927.63;;;11.07;100.00
6194;BME280;3130;41.564;23.280;2023-04-26T07:07:05;97958.50;;;11.28;100.00
6194;BME280;3130;41.564;23.280;2023-04-26T07:09:32;97989.06;;;11.31;100.00
6194;BME280;3130;41.564;23.280;2023-04-26T07:11:59;97991.72;;;11.51;100.00
6194;BME280;3130;41.564;23.280;2023-04-26T07:14:26;97992.41;;;11.64;100.00
6194;BME280;3130;41.564;23.280;2023-04-26T07:16:53;97985.88;;;11.71;100.00
6194;BME280;3130;41.564;23.280;2023-04-26T07:19:21;97981.38;;;11.84;100.00
6194;BME280;3130;41.564;23.280;2023-04-26T07:21:48;97988.72;;;11.89;100.00
6194;BME280;3130;41.564;23.280;2023-04-26T07:24:16;97988.38;;;11.93;100.00
6194;BME280;3130;41.564;23.280;2023-04-26T07:26:44;97980.66;;;11.93;100.00
6194;BME280;3130;41.564;23.280;2023-04-26T07:29:11;97979.34;;;11.99;100.00
6194;BME280;3130;41.564;23.280;2023-04-26T07:31:38;97956.84;;;11.91;100.00
6194;BME280;3130;41.564;23.280;2023-04-26T07:34:06;97972.41;;;12.10;100.00
6194;BME280;3130;41.564;23.280;2023-04-26T07:36:33;97968.22;;;12.09;100.00
6194;BME280;3130;41.564;23.280;2023-04-26T07:39:00;97949.22;;;12.01;100.00
6194;BME280;3130;41.564;23.280;2023-04-26T07:41:28;97922.16;;;11.65;100.00
6194;BME280;3130;41.564;23.280;2023-04-26T07:43:55;97921.94;;;11.57;100.00
6194;BME280;3130;41.564;23.280;2023-04-26T07:46:23;97891.28;;;11.34;100.00
6194;BME280;3130;41.564;23.280;2023-04-26T07:48:50;97942.81;;;11.53;100.00
6194;BME280;3130;41.564;23.280;2023-04-26T07:51:17;97932.97;;;11.69;100.00
6194;BME280;3130;41.564;23.280;2023-04-26T07:53:45;97938.47;;;11.64;100.00
6194;BME280;3130;41.564;23.280;2023-04-26T07:56:12;97884.56;;;11.33;100.00
6194;BME280;3130;41.564;23.280;2023-04-26T07:58:41;97939.91;;;11.89;100.00
6194;BME280;3130;41.564;23.280;2023-04-26T08:01:08;97948.28;;;12.02;100.00
6194;BME280;3130;41.564;23.280;2023-04-26T08:03:36;97950.16;;;12.20;100.00
6194;BME280;3130;41.564;23.280;2023-04-26T08:06:03;97948.78;;;12.36;100.00
6194;BME280;3130;41.564;23.280;2023-04-26T08:08:49;97954.03;;;12.55;100.00
6194;BME280;3130;41.564;23.280;2023-04-26T08:11:17;97954.50;;;12.70;100.00
6194;BME280;3130;41.564;23.280;2023-04-26T08:13:46;97958.31;;;12.75;100.00
6194;BME280;3130;41.564;23.280;2023-04-26T08:16:13;97959.25;;;12.74;100.00
6194;BME280;3130;41.564;23.280;2023-04-26T08:18:40;97965.09;;;12.76;100.00
6194;BME280;3130;41.564;23.280;2023-04-26T08:21:07;97963.97;;;12.69;100.00
6194;BME280;3130;41.564;23.280;2023-04-26T08:23:34;97964.38;;;12.65;100.00
6194;BME280;3130;41.564;23.280;2023-04-26T08:26:02;97931.38;;;12.49;100.00
6194;BME280;3130;41.564;23.280;2023-04-26T08:28:29;97962.78;;;12.73;100.00
6194;BME280;3130;41.564;23.280;2023-04-26T08:30:58;97954.84;;;12.86;100.00
6194;BME280;3130;41.564;23.280;2023-04-26T08:33:25;97957.00;;;12.81;100.00
6194;BME280;3130;41.564;23.280;2023-04-26T08:35:52;97961.63;;;12.87;100.00
6194;BME280;3130;41.564;23.280;2023-04-26T08:38:19;97938.75;;;12.63;100.00
6194;BME280;3130;41.564;23.280;2023-04-26T08:40:47;97925.81;;;12.44;100.00
6194;BME280;3130;41.564;23.280;2023-04-26T08:43:15;97958.88;;;12.79;100.00
6194;BME280;3130;41.564;23.280;2023-04-26T08:45:44;97953.06;;;12.56;100.00
6194;BME280;3130;41.564;23.280;2023-04-26T08:48:13;97844.81;;;12.00;100.00
6194;BME280;3130;41.564;23.280;2023-04-26T08:50:43;97951.63;;;12.63;100.00
6194;BME280;3130;41.564;23.280;2023-04-26T08:53:13;97949.06;;;12.63;100.00
6194;BME280;3130;41.564;23.280;2023-04-26T08:55:46;97958.00;;;12.69;100.00
6194;BME280;3130;41.564;23.280;2023-04-26T08:58:14;97950.03;;;12.72;100.00
6194;BME280;3130;41.564;23.280;2023-04-26T09:00:42;97937.81;;;12.64;100.00
6194;BME280;3130;41.564;23.280;2023-04-26T09:03:10;97959.81;;;12.78;100.00
6194;BME280;3130;41.564;23.280;2023-04-26T09:05:40;97959.97;;;12.86;100.00
6194;BME280;3130;41.564;23.280;2023-04-26T09:08:13;97959.72;;;12.89;100.00
6194;BME280;3130;41.564;23.280;2023-04-26T09:10:42;97956.13;;;12.91;100.00
6194;BME280;3130;41.564;23.280;2023-04-26T09:13:09;97887.53;;;12.51;100.00
6194;BME280;3130;41.564;23.280;2023-04-26T09:15:37;97830.84;;;12.22;100.00
6194;BME280;3130;41.564;23.280;2023-04-26T09:18:17;97959.28;;;12.84;100.00
6194;BME280;3130;41.564;23.280;2023-04-26T09:21:00;97927.16;;;12.69;100.00
6194;BME280;3130;41.564;23.280;2023-04-26T09:23:28;97956.63;;;12.85;100.00
6194;BME280;3130;41.564;23.280;2023-04-26T09:25:55;97950.00;;;12.92;100.00
6194;BME280;3130;41.564;23.280;2023-04-26T09:28:23;97850.41;;;12.34;100.00
6194;BME280;3130;41.564;23.280;2023-04-26T09:30:50;97956.84;;;13.03;100.00
6194;BME280;3130;41.564;23.280;2023-04-26T09:33:17;97928.63;;;12.92;100.00
6194;BME280;3130;41.564;23.280;2023-04-26T09:35:46;97961.25;;;13.21;100.00
6194;BME280;3130;41.564;23.280;2023-04-26T09:38:14;97955.28;;;13.30;100.00
6194;BME280;3130;41.564;23.280;2023-04-26T09:40:43;97959.50;;;13.31;100.00
6194;BME280;3130;41.564;23.280;2023-04-26T09:43:12;97933.00;;;13.10;100.00
6194;BME280;3130;41.564;23.280;2023-04-26T09:45:44;97955.56;;;13.27;100.00
6194;BME280;3130;41.564;23.280;2023-04-26T09:48:12;97962.88;;;13.22;100.00
6194;BME280;3130;41.564;23.280;2023-04-26T09:50:41;97947.97;;;13.25;100.00
6194;BME280;3130;41.564;23.280;2023-04-26T09:53:10;97953.50;;;13.11;100.00
6194;BME280;3130;41.564;23.280;2023-04-26T09:55:37;97935.47;;;13.11;100.00
6194;BME280;3130;41.564;23.280;2023-04-26T09:58:09;97971.28;;;13.24;100.00
6194;BME280;3130;41.564;23.280;2023-04-26T10:00:37;97959.69;;;13.00;100.00
6194;BME280;3130;41.564;23.280;2023-04-26T10:03:08;97900.63;;;12.68;100.00
6194;BME280;3130;41.564;23.280;2023-04-26T10:05:35;97936.34;;;12.92;100.00
6194;BME280;3130;41.564;23.280;2023-04-26T10:08:05;97965.84;;;13.17;100.00
6194;BME280;3130;41.564;23.280;2023-04-26T10:10:34;97963.38;;;13.16;100.00
6194;BME280;3130;41.564;23.280;2023-04-26T10:13:04;97955.09;;;13.03;97.54
6194;BME280;3130;41.564;23.280;2023-04-26T10:15:32;97970.59;;;13.22;97.03
6194;BME280;3130;41.564;23.280;2023-04-26T10:18:00;97968.78;;;13.13;93.53
6194;BME280;3130;41.564;23.280;2023-04-26T10:20:28;97973.28;;;13.20;93.17
6194;BME280;3130;41.564;23.280;2023-04-26T10:22:56;97965.56;;;13.20;92.29
6194;BME280;3130;41.564;23.280;2023-04-26T10:25:37;97966.75;;;13.07;91.71
6194;BME280;3130;41.564;23.280;2023-04-26T10:28:05;97962.16;;;13.10;91.21
6194;BME280;3130;41.564;23.280;2023-04-26T10:30:32;97964.25;;;12.96;91.10
6194;BME280;3130;41.564;23.280;2023-04-26T10:33:14;97967.41;;;13.09;93.14
6194;BME280;3130;41.564;23.280;2023-04-26T10:36:06;97955.78;;;13.05;93.24
6194;BME280;3130;41.564;23.280;2023-04-26T10:38:35;97955.41;;;12.89;93.26
6194;BME280;3130;41.564;23.280;2023-04-26T10:41:32;97952.34;;;12.95;94.54
6194;BME280;3130;41.564;23.280;2023-04-26T10:44:37;97926.88;;;12.72;93.66
6194;BME280;3130;41.564;23.280;2023-04-26T10:47:05;97950.78;;;12.83;94.56
6194;BME280;3130;41.564;23.280;2023-04-26T10:49:44;97940.88;;;12.79;96.49
6194;BME280;3130;41.564;23.280;2023-04-26T10:52:13;97948.75;;;13.07;96.66
6194;BME280;3130;41.564;23.280;2023-04-26T10:54:57;97922.06;;;13.08;97.19
6194;BME280;3130;41.564;23.280;2023-04-26T10:57:46;97920.47;;;13.26;96.69
6194;BME280;3130;41.564;23.280;2023-04-26T11:00:28;97948.31;;;13.60;96.18
6194;BME280;3130;41.564;23.280;2023-04-26T11:02:56;97939.91;;;13.68;96.25
6194;BME280;3130;41.564;23.280;2023-04-26T11:08:23;97931.38;;;14.14;94.88
6194;BME280;3130;41.564;23.280;2023-04-26T11:11:06;97944.81;;;14.37;91.95
6194;BME280;3130;41.564;23.280;2023-04-26T11:13:39;97939.28;;;14.68;90.47
6194;BME280;3130;41.564;23.280;2023-04-26T11:16:08;97850.09;;;14.29;87.44
6194;BME280;3130;41.564;23.280;2023-04-26T11:18:36;97942.44;;;14.99;85.37
6194;BME280;3130;41.564;23.280;2023-04-26T11:21:04;97931.66;;;15.03;84.71
6194;BME280;3130;41.564;23.280;2023-04-26T11:23:31;97943.41;;;15.24;84.15
6194;BME280;3130;41.564;23.280;2023-04-26T11:26:00;97939.91;;;15.43;84.37
6194;BME280;3130;41.564;23.280;2023-04-26T11:28:28;97937.16;;;15.54;83.87
6194;BME280;3130;41.564;23.280;2023-04-26T11:30:57;97931.81;;;15.73;83.52
6194;BME280;3130;41.564;23.280;2023-04-26T11:33:25;97933.25;;;15.85;81.26
6194;BME280;3130;41.564;23.280;2023-04-26T11:35:53;97916.19;;;15.74;81.30
6194;BME280;3130;41.564;23.280;2023-04-26T11:38:21;97895.50;;;15.74;80.58
6194;BME280;3130;41.564;23.280;2023-04-26T11:40:52;97921.94;;;15.86;79.34
6194;BME280;3130;41.564;23.280;2023-04-26T11:43:20;97934.34;;;16.00;78.92
6194;BME280;3130;41.564;23.280;2023-04-26T11:45:47;97925.63;;;16.01;77.75
6194;BME280;3130;41.564;23.280;2023-04-26T11:48:16;97916.97;;;15.92;78.22
6194;BME280;3130;41.564;23.280;2023-04-26T11:50:43;97935.59;;;15.96;79.09
6194;BME280;3130;41.564;23.280;2023-04-26T11:53:11;97934.91;;;15.94;78.48
6194;BME280;3130;41.564;23.280;2023-04-26T11:55:38;97929.31;;;15.81;78.45
6194;BME280;3130;41.564;23.280;2023-04-26T11:58:11;97933.16;;;15.77;77.28
6194;BME280;3130;41.564;23.280;2023-04-26T12:00:56;97917.44;;;15.88;78.84
6194;BME280;3130;41.564;23.280;2023-04-26T12:03:28;97894.31;;;15.69;77.32
6194;BME280;3130;41.564;23.280;2023-04-26T12:05:55;97866.09;;;15.58;79.37
6194;BME280;3130;41.564;23.280;2023-04-26T12:08:26;97863.38;;;15.59;77.81
6194;BME280;3130;41.564;23.280;2023-04-26T12:10:53;97853.63;;;15.71;78.20
6194;BME280;3130;41.564;23.280;2023-04-26T12:13:20;97923.72;;;16.28;74.59
6194;BME280;3130;41.564;23.280;2023-04-26T12:15:47;97924.56;;;16.54;75.24
6194;BME280;3130;41.564;23.280;2023-04-26T12:18:16;97937.00;;;16.76;74.17
6194;BME280;3130;41.564;23.280;2023-04-26T12:20:45;97929.97;;;16.94;73.38
6194;BME280;3130;41.564;23.280;2023-04-26T12:23:13;97917.69;;;16.96;71.38
6194;BME280;3130;41.564;23.280;2023-04-26T12:25:51;97930.75;;;17.19;70.36
6194;BME280;3130;41.564;23.280;2023-04-26T12:28:20;97930.31;;;17.32;69.10
6194;BME280;3130;41.564;23.280;2023-04-26T12:30:48;97922.84;;;16.37;67.29
6194;BME280;3130;41.564;23.280;2023-04-26T12:33:15;97850.13;;;15.97;67.94
6194;BME280;3130;41.564;23.280;2023-04-26T12:35:46;97919.25;;;16.55;69.07
6194;BME280;3130;41.564;23.280;2023-04-26T12:38:13;97915.91;;;16.63;67.08
6194;BME280;3130;41.564;23.280;2023-04-26T12:40:41;97918.69;;;16.69;65.43
6194;BME280;3130;41.564;23.280;2023-04-26T12:43:08;97911.94;;;16.76;65.40
6194;BME280;3130;41.564;23.280;2023-04-26T12:45:35;97892.44;;;16.64;65.98
6194;BME280;3130;41.564;23.280;2023-04-26T12:48:03;97912.63;;;16.86;64.83
6194;BME280;3130;41.564;23.280;2023-04-26T12:50:30;97887.16;;;16.74;65.56
6194;BME280;3130;41.564;23.280;2023-04-26T12:52:59;97904.81;;;16.78;65.92
6194;BME280;3130;41.564;23.280;2023-04-26T12:55:26;97896.47;;;16.92;64.72
6194;BME280;3130;41.564;23.280;2023-04-26T12:57:53;97890.13;;;16.87;64.60
6194;BME280;3130;41.564;23.280;2023-04-26T13:00:20;97859.56;;;16.90;64.89
6194;BME280;3130;41.564;23.280;2023-04-26T13:02:47;97892.03;;;17.18;65.74
6194;BME280;3130;41.564;23.280;2023-04-26T13:05:15;97889.78;;;17.23;62.95
6194;BME280;3130;41.564;23.280;2023-04-26T13:07:42;97883.53;;;17.33;63.47
6194;BME280;3130;41.564;23.280;2023-04-26T13:10:11;97896.50;;;17.49;60.34
6194;BME280;3130;41.564;23.280;2023-04-26T13:12:38;97892.97;;;17.09;60.70
6194;BME280;3130;41.564;23.280;2023-04-26T13:15:06;97894.34;;;17.29;63.52
6194;BME280;3130;41.564;23.280;2023-04-26T13:17:34;97903.84;;;17.13;61.23
6194;BME280;3130;41.564;23.280;2023-04-26T13:20:02;97902.03;;;17.05;60.79